Eau Claire, Michigan
Current Conditions -  °F | °C
As of 10:53 PM on Sunday 25 Jan 2015 (Local Time) from KBEH Reporting Station
Scattered Clouds Scattered Clouds  
Wind Chill:   Ceiling: Unl
Heat Index: 18°   Visibility: 10mi
Dew Point: 11°   Wind: 7mph
Humidity: 74%   Direction: 50°NE
Pressure: 29.98"   Gusts: NA
Location:  41.99°N, 86.3°W
Report Text: KBEH 260353Z AUTO 05006KT 10SM SCT120 M08/M12 A2998 RMK AO2 SLP162 T10781117
Loading
Personal Weather Stations






























Interactive Weather Map New forecast layout! Learn more

10-Day Weather Forecast

Advertisements
Track Severe Weather on mobile